MV-0001 weather

Biyadoo Island
Malé Capital, Maldives

Public forecast

Using degrees Celsius for public forecast. Weather courtesy of forecast.io.

METAR (pilot weather report)

Closest report is Malé International Airport, 16.7 nm (30.9 km) NNE. Retrieved 2019/05/20 08:00 UTC (45 minutes ago):

VRMM 200800Z 25005KT 9999 FEW019 BKN280 31/25 Q1010 NOSIG

TAF (pilot weather forecast)

Closest forecast is Malé International Airport, 16.7 nm (30.9 km) NNE. Retrieved 2019/05/20 06:00 UTC (3 hours ago):

TAF VRMM 200500Z 2006/2112 25008KT 9999 FEW018TCU TEMPO 2007/2013 5000 -SHRA FEW018CB